Time;durP1;ratioP1;P1;durP2;ratioP2;P2;SDS_P1;SDS_P2;PMS_P1;PMS_P2;Temp;Humidity;BMP_temperature;BMP_pressure;BME280_temperature;BME280_humidity;BME280_pressure;Samples;Min_cycle;Max_cycle;Signal;HPM_P1;HPM_P2
2022/01/28 00:00:59;;;;;;;10.53;1.87;;;5.00;99.90;;;;;;4990196;28;20209;-74
2022/01/28 00:03:25;;;;;;;15.10;3.87;;;5.00;99.90;;;;;;4989202;28;20218;-74
2022/01/28 00:05:51;;;;;;;15.13;2.40;;;5.00;99.90;;;;;;5005849;28;20212;-74
2022/01/28 00:08:16;;;;;;;13.13;2.10;;;5.00;99.90;;;;;;5004940;28;20197;-74
2022/01/28 00:10:42;;;;;;;14.83;2.20;;;5.00;99.90;;;;;;4988245;28;20216;-74
2022/01/28 00:13:21;;;;;;;17.67;2.03;;;5.10;99.90;;;;;;4988474;28;20182;-74
2022/01/28 00:16:09;;;;;;;10.33;1.77;;;5.10;99.90;;;;;;5001499;28;20670;-74
2022/01/28 00:40:15;;;;;;;11.40;2.80;;;4.90;99.90;;;;;;4988623;28;20207;-74
2022/01/28 00:42:40;;;;;;;13.10;2.47;;;4.80;99.90;;;;;;5005039;28;20216;-74
2022/01/28 00:45:06;;;;;;;14.87;2.30;;;4.80;99.90;;;;;;4988882;28;20227;-74
2022/01/28 00:47:32;;;;;;;13.47;2.07;;;4.80;99.90;;;;;;4986947;28;20220;-74
2022/01/28 00:49:57;;;;;;;10.30;2.50;;;4.80;99.90;;;;;;4987632;28;20222;-74
2022/01/28 00:52:23;;;;;;;12.37;2.53;;;4.80;99.90;;;;;;4988585;28;20214;-74
2022/01/28 00:54:49;;;;;;;7.30;1.83;;;4.80;99.90;;;;;;5004169;28;20197;-74
2022/01/28 00:57:14;;;;;;;16.07;2.37;;;4.80;99.90;;;;;;5004855;28;20201;-74
2022/01/28 00:59:40;;;;;;;14.50;2.00;;;4.80;99.90;;;;;;4987141;28;20304;-74
2022/01/28 01:02:06;;;;;;;14.20;2.77;;;4.80;99.90;;;;;;4988516;28;20193;-74
2022/01/28 01:04:31;;;;;;;14.17;2.33;;;4.80;99.90;;;;;;4989141;28;20193;-74
2022/01/28 01:06:57;;;;;;;18.50;2.63;;;4.80;99.90;;;;;;5004315;28;20197;-74
2022/01/28 01:09:23;;;;;;;9.77;2.60;;;4.80;99.90;;;;;;4986915;28;20748;-74
2022/01/28 01:11:48;;;;;;;17.30;2.23;;;4.80;99.90;;;;;;5004369;28;20193;-74
2022/01/28 01:14:14;;;;;;;17.57;2.53;;;4.80;99.90;;;;;;4988293;28;20185;-74
2022/01/28 01:17:13;;;;;;;17.73;2.67;;;4.80;99.90;;;;;;5003850;28;20231;-74
2022/01/28 01:19:29;;;;;;;12.17;2.50;;;4.80;99.90;;;;;;4984860;28;20303;-74
2022/01/28 01:21:58;;;;;;;15.10;2.60;;;4.80;99.90;;;;;;4987430;28;20217;-74
2022/01/28 01:24:27;;;;;;;15.33;2.80;;;4.90;99.90;;;;;;4987905;28;20325;-74
2022/01/28 01:26:53;;;;;;;11.43;2.00;;;4.80;99.90;;;;;;5002334;28;20186;-74
2022/01/28 01:29:21;;;;;;;15.60;2.27;;;4.90;99.90;;;;;;4986850;28;20285;-74
2022/01/28 01:31:47;;;;;;;18.27;2.60;;;4.90;99.90;;;;;;4986898;28;20248;-74
2022/01/28 01:34:22;;;;;;;22.07;2.60;;;4.90;99.90;;;;;;5003085;28;20213;-74
2022/01/28 01:36:48;;;;;;;17.67;2.80;;;4.90;99.90;;;;;;4987365;28;20692;-74
2022/01/28 01:39:23;;;;;;;10.53;2.47;;;4.90;99.90;;;;;;4986994;28;20204;-74
2022/01/28 01:41:58;;;;;;;12.37;2.20;;;4.90;99.90;;;;;;4987085;28;20605;-74
2022/01/28 01:52:44;;;;;;;13.53;1.87;;;4.80;99.90;;;;;;4987225;28;20183;-74
2022/01/28 01:55:10;;;;;;;13.87;2.37;;;4.90;99.90;;;;;;4987140;28;20281;-74
2022/01/28 01:57:37;;;;;;;14.63;2.70;;;4.80;99.90;;;;;;4985232;28;20244;-74
2022/01/28 02:00:04;;;;;;;13.40;3.10;;;4.90;99.90;;;;;;5001382;28;20225;-73
2022/01/28 02:02:30;;;;;;;19.03;3.27;;;4.80;99.90;;;;;;4987035;28;20193;-73
2022/01/28 02:04:56;;;;;;;11.50;1.83;;;4.90;99.90;;;;;;5004136;28;20247;-73
2022/01/28 02:07:22;;;;;;;8.13;1.87;;;4.90;99.90;;;;;;4987012;28;20198;-73
2022/01/28 02:09:48;;;;;;;9.87;1.90;;;4.80;99.90;;;;;;4986191;28;20216;-73
2022/01/28 02:12:13;;;;;;;8.67;1.93;;;4.80;99.90;;;;;;5002693;28;20189;-73
2022/01/28 02:14:39;;;;;;;10.80;2.37;;;4.80;99.90;;;;;;4985099;28;20216;-73
2022/01/28 02:17:05;;;;;;;13.40;1.80;;;4.80;99.90;;;;;;4985209;28;20560;-73
2022/01/28 02:19:31;;;;;;;14.53;1.77;;;4.70;99.90;;;;;;5003403;28;20559;-73
2022/01/28 02:21:57;;;;;;;17.43;2.50;;;4.70;99.90;;;;;;5003156;28;20197;-74
2022/01/28 02:24:32;;;;;;;14.63;2.37;;;4.80;99.90;;;;;;5001856;28;20208;-73
2022/01/28 02:26:58;;;;;;;14.10;2.13;;;4.70;99.90;;;;;;4987757;28;20197;-73
2022/01/28 02:29:31;;;;;;;10.43;1.90;;;4.70;99.90;;;;;;4986434;28;20212;-73
2022/01/28 02:32:00;;;;;;;11.53;2.03;;;4.70;99.90;;;;;;4989038;28;20200;-73
2022/01/28 02:34:26;;;;;;;9.23;2.03;;;4.60;99.90;;;;;;4987032;28;20192;-74
2022/01/28 02:36:52;;;;;;;11.20;1.73;;;4.60;99.90;;;;;;4987810;28;20206;-73
2022/01/28 02:39:18;;;;;;;9.90;2.33;;;4.60;99.90;;;;;;4986852;28;20200;-73
2022/01/28 02:41:48;;;;;;;15.83;2.30;;;4.60;99.90;;;;;;5003801;28;20208;-73
2022/01/28 02:46:54;;;;;;;15.33;2.40;;;4.70;99.90;;;;;;4986833;28;20196;-73
2022/01/28 02:49:20;;;;;;;14.23;2.47;;;4.70;99.90;;;;;;5001990;28;20208;-73
2022/01/28 02:51:46;;;;;;;19.77;3.47;;;4.70;99.90;;;;;;4987236;28;20184;-73
2022/01/28 02:54:14;;;;;;;11.53;2.03;;;4.80;99.90;;;;;;5002148;28;20181;-73
2022/01/28 02:56:47;;;;;;;15.33;2.47;;;4.80;99.90;;;;;;5003540;28;20186;-73
2022/01/28 02:59:13;;;;;;;18.47;4.07;;;4.70;99.90;;;;;;4984472;28;20213;-73
2022/01/28 03:01:39;;;;;;;15.33;2.40;;;4.70;99.90;;;;;;5003150;28;20236;-73
2022/01/28 03:04:07;;;;;;;11.47;2.67;;;4.80;99.90;;;;;;4986727;28;20277;-73
2022/01/28 03:06:32;;;;;;;16.00;2.60;;;4.80;99.90;;;;;;4985843;28;20193;-73
2022/01/28 03:09:01;;;;;;;12.83;2.70;;;4.80;99.90;;;;;;4984346;28;20193;-73
2022/01/28 03:11:43;;;;;;;12.43;2.27;;;4.80;99.90;;;;;;4990791;28;20465;-73
2022/01/28 03:19:40;;;;;;;16.37;2.67;;;4.80;99.90;;;;;;4990940;28;20189;-74
2022/01/28 03:22:06;;;;;;;15.27;2.07;;;4.90;99.90;;;;;;4990658;28;20232;-74
2022/01/28 03:24:32;;;;;;;17.37;3.33;;;4.90;99.90;;;;;;4990003;28;20228;-74
2022/01/28 03:27:03;;;;;;;14.17;2.87;;;4.90;99.90;;;;;;4990101;28;20197;-74
2022/01/28 03:29:29;;;;;;;15.13;2.43;;;4.90;99.90;;;;;;5005190;28;20222;-74
2022/01/28 03:31:55;;;;;;;12.03;2.20;;;4.90;99.90;;;;;;4989690;28;20271;-74
2022/01/28 03:34:20;;;;;;;17.73;2.53;;;4.90;99.90;;;;;;4989069;28;20192;-74
2022/01/28 03:36:46;;;;;;;9.43;2.23;;;4.80;99.90;;;;;;4989621;28;20246;-74
2022/01/28 03:39:12;;;;;;;12.73;2.77;;;4.80;99.90;;;;;;4989316;28;20653;-74
2022/01/28 03:41:38;;;;;;;9.63;2.20;;;4.80;99.90;;;;;;4989518;28;20204;-74
2022/01/28 03:44:05;;;;;;;8.70;2.03;;;4.80;99.90;;;;;;4990648;28;20186;-74
2022/01/28 03:46:31;;;;;;;13.87;2.03;;;4.80;99.90;;;;;;4991733;28;20211;-74
2022/01/28 03:48:57;;;;;;;12.17;2.50;;;4.80;99.90;;;;;;4993406;28;20188;-74
2022/01/28 03:51:23;;;;;;;11.80;2.00;;;4.80;99.90;;;;;;4992209;28;20212;-74
2022/01/28 03:53:49;;;;;;;12.43;2.53;;;4.80;99.90;;;;;;4993171;28;20170;-74
2022/01/28 03:56:15;;;;;;;11.23;2.53;;;4.90;99.90;;;;;;5009568;28;20185;-74
2022/01/28 03:58:41;;;;;;;14.57;1.90;;;4.90;99.90;;;;;;4990901;28;20180;-74
2022/01/28 04:01:14;;;;;;;12.37;2.50;;;4.90;99.90;;;;;;4991955;28;20213;-74
2022/01/28 04:03:47;;;;;;;15.83;2.23;;;4.90;99.90;;;;;;4989132;28;20185;-74
2022/01/28 04:11:42;;;;;;;11.83;2.27;;;5.00;99.90;;;;;;4995435;28;20260;-74
2022/01/28 04:19:37;;;;;;;10.90;1.53;;;5.00;99.90;;;;;;4976826;28;20169;-74
2022/01/28 04:22:04;;;;;;;11.53;2.07;;;5.00;99.90;;;;;;4992011;28;20693;-74
2022/01/28 04:24:30;;;;;;;9.87;1.80;;;5.00;99.90;;;;;;4982454;28;20279;-74
2022/01/28 04:26:55;;;;;;;15.70;2.70;;;5.10;99.90;;;;;;4993990;28;20284;-74
2022/01/28 04:29:21;;;;;;;9.33;2.30;;;5.10;99.90;;;;;;4992879;28;20300;-75
2022/01/28 04:31:48;;;;;;;12.17;2.67;;;5.10;99.90;;;;;;4993947;28;20193;-74
2022/01/28 04:34:15;;;;;;;11.53;1.97;;;5.10;99.90;;;;;;4994063;28;20182;-74
2022/01/28 04:42:14;;;;;;;10.33;2.17;;;5.00;99.90;;;;;;4994988;28;20185;-72
2022/01/28 04:47:22;;;;;;;11.50;2.10;;;5.00;99.90;;;;;;4984266;28;20185;-72
2022/01/28 04:50:09;;;;;;;21.60;2.50;;;5.00;99.90;;;;;;4992374;28;20213;-72
2022/01/28 05:10:58;;;;;;;15.13;2.57;;;4.90;99.90;;;;;;4993011;28;20213;-72
2022/01/28 05:14:06;;;;;;;13.33;2.70;;;4.90;99.90;;;;;;4994373;28;20189;-72
2022/01/28 05:26:59;;;;;;;11.53;2.50;;;4.80;99.90;;;;;;5013713;28;20184;-72
2022/01/28 05:29:25;;;;;;;12.17;2.40;;;4.80;99.90;;;;;;4993647;28;20205;-72
2022/01/28 05:31:51;;;;;;;11.87;2.83;;;4.80;99.90;;;;;;4992404;28;20174;-72
2022/01/28 05:34:17;;;;;;;15.47;2.70;;;4.80;99.90;;;;;;4993448;28;20243;-71
2022/01/28 05:36:43;;;;;;;12.37;2.63;;;4.80;99.90;;;;;;5011332;28;20542;-72
2022/01/28 05:39:09;;;;;;;14.40;2.23;;;4.90;99.90;;;;;;4991142;28;20186;-71
2022/01/28 05:41:35;;;;;;;20.47;2.57;;;4.90;99.90;;;;;;4991392;28;20204;-71
2022/01/28 05:44:02;;;;;;;17.13;2.67;;;4.90;99.90;;;;;;4988158;28;20224;-71
2022/01/28 05:46:29;;;;;;;15.17;2.40;;;5.00;99.90;;;;;;4982454;28;20180;-71
2022/01/28 05:48:58;;;;;;;14.67;1.83;;;5.00;99.90;;;;;;5001278;28;20206;-71
2022/01/28 05:51:24;;;;;;;14.80;2.60;;;5.00;99.90;;;;;;5007907;28;20239;-71
2022/01/28 05:53:50;;;;;;;14.93;2.87;;;5.00;99.90;;;;;;4991491;28;20189;-71
2022/01/28 05:56:15;;;;;;;9.40;2.03;;;5.10;99.90;;;;;;5008752;28;20182;-71
2022/01/28 05:58:41;;;;;;;17.77;3.23;;;5.00;99.90;;;;;;4990976;28;20174;-72
2022/01/28 06:01:06;;;;;;;11.67;2.23;;;5.10;99.90;;;;;;4991673;28;20212;-71
2022/01/28 06:03:32;;;;;;;13.10;2.40;;;5.00;99.90;;;;;;4991699;28;20275;-71
2022/01/28 06:05:58;;;;;;;9.33;2.43;;;5.10;99.90;;;;;;4999943;28;20182;-71
2022/01/28 06:08:23;;;;;;;11.27;1.93;;;5.10;99.90;;;;;;4991235;28;20189;-72
2022/01/28 06:10:49;;;;;;;14.97;2.80;;;5.10;99.90;;;;;;4988018;28;20391;-71
2022/01/28 06:13:15;;;;;;;10.47;2.13;;;5.10;99.90;;;;;;4988850;28;20185;-71
2022/01/28 06:15:44;;;;;;;15.40;2.77;;;5.10;99.90;;;;;;4991239;28;20182;-72
2022/01/28 06:18:10;;;;;;;13.50;1.80;;;5.10;99.90;;;;;;4990966;28;20827;-71
2022/01/28 06:20:36;;;;;;;16.23;2.27;;;5.10;99.90;;;;;;4990774;28;20229;-71
2022/01/28 06:23:03;;;;;;;9.43;2.73;;;5.20;99.90;;;;;;4989001;28;20182;-71
2022/01/28 06:25:29;;;;;;;16.43;2.60;;;5.20;99.90;;;;;;4972541;28;20185;-71
2022/01/28 06:27:55;;;;;;;25.50;4.13;;;5.20;99.90;;;;;;4984718;28;20194;-71
2022/01/28 06:30:22;;;;;;;21.63;3.73;;;5.20;99.90;;;;;;4973709;28;20220;-71
2022/01/28 06:32:48;;;;;;;17.17;3.03;;;5.20;99.90;;;;;;4992939;28;20173;-71
2022/01/28 06:35:14;;;;;;;20.00;3.43;;;5.20;99.90;;;;;;4991504;28;20248;-71
2022/01/28 06:37:42;;;;;;;14.50;3.03;;;5.20;99.90;;;;;;4991549;28;20185;-73
2022/01/28 06:40:11;;;;;;;15.07;3.60;;;5.20;99.90;;;;;;4990995;28;20255;-73
2022/01/28 06:42:36;;;;;;;17.00;3.17;;;5.20;99.90;;;;;;4991678;28;20244;-73
2022/01/28 06:45:04;;;;;;;15.00;2.87;;;5.20;99.90;;;;;;4990326;28;20185;-73
2022/01/28 06:47:29;;;;;;;18.30;3.20;;;5.20;99.90;;;;;;4990978;28;20188;-73
2022/01/28 06:49:55;;;;;;;15.77;2.87;;;5.20;99.90;;;;;;4989273;28;20209;-73
2022/01/28 06:52:21;;;;;;;13.97;3.30;;;5.10;99.90;;;;;;4990102;28;20540;-73
2022/01/28 06:54:47;;;;;;;17.53;3.40;;;5.10;99.90;;;;;;4991056;28;20235;-74
2022/01/28 06:57:12;;;;;;;16.47;2.63;;;5.10;99.90;;;;;;4988101;28;20190;-73
2022/01/28 06:59:38;;;;;;;16.43;3.10;;;5.10;99.90;;;;;;4990645;28;20185;-73
2022/01/28 07:02:04;;;;;;;10.63;2.23;;;5.10;99.90;;;;;;4990180;28;20331;-72
2022/01/28 07:04:29;;;;;;;13.57;2.63;;;5.10;99.90;;;;;;5008816;28;20189;-73
2022/01/28 07:06:55;;;;;;;20.20;3.57;;;5.10;99.90;;;;;;4990749;28;20181;-73
2022/01/28 07:09:21;;;;;;;16.60;2.67;;;5.00;99.90;;;;;;4990014;28;20203;-73
2022/01/28 07:11:47;;;;;;;15.40;2.73;;;5.00;99.90;;;;;;4990978;28;20201;-73
2022/01/28 07:14:12;;;;;;;20.50;3.63;;;5.10;99.90;;;;;;4988980;28;20193;-73
2022/01/28 07:16:38;;;;;;;20.50;2.83;;;5.10;99.90;;;;;;4999080;28;20178;-73
2022/01/28 07:19:04;;;;;;;17.10;2.80;;;5.10;99.90;;;;;;4989290;28;20260;-73
2022/01/28 07:21:29;;;;;;;18.83;3.43;;;5.10;99.90;;;;;;4990463;28;20633;-73
2022/01/28 07:23:55;;;;;;;12.20;2.00;;;5.10;99.90;;;;;;5006570;28;20217;-73
2022/01/28 07:26:21;;;;;;;27.80;4.80;;;5.10;99.90;;;;;;5007121;28;20189;-73
2022/01/28 07:28:48;;;;;;;16.10;2.90;;;5.10;99.90;;;;;;4988587;28;20193;-73
2022/01/28 07:31:17;;;;;;;13.63;2.80;;;5.10;99.90;;;;;;4989751;28;20217;-73
2022/01/28 07:33:43;;;;;;;16.10;3.23;;;5.10;99.90;;;;;;4989581;28;20189;-73
2022/01/28 07:36:08;;;;;;;19.23;2.93;;;5.00;99.90;;;;;;4989304;28;20191;-73
2022/01/28 07:38:34;;;;;;;14.83;2.40;;;5.00;99.90;;;;;;4990169;28;20601;-74
2022/01/28 07:41:01;;;;;;;15.60;2.67;;;5.00;99.90;;;;;;4982302;28;20201;-72
2022/01/28 07:43:27;;;;;;;12.67;2.13;;;5.00;99.90;;;;;;4990781;28;20213;-73
2022/01/28 07:45:52;;;;;;;13.37;2.57;;;5.00;99.90;;;;;;4990330;28;20185;-73
2022/01/28 07:48:18;;;;;;;12.27;3.17;;;5.00;99.90;;;;;;4990405;28;20313;-73
2022/01/28 07:50:44;;;;;;;16.90;2.57;;;5.00;99.90;;;;;;4988520;28;20220;-73
2022/01/28 07:53:14;;;;;;;25.37;3.83;;;5.00;99.90;;;;;;4974137;28;20192;-73
2022/01/28 07:55:39;;;;;;;78.50;9.27;;;5.00;99.90;;;;;;4990551;28;20173;-73
2022/01/28 07:58:05;;;;;;;20.00;3.73;;;5.00;99.90;;;;;;4994425;28;20196;-73
2022/01/28 08:00:31;;;;;;;17.03;3.37;;;5.00;99.90;;;;;;4993579;28;20717;-72
2022/01/28 08:02:56;;;;;;;18.17;2.97;;;5.10;99.90;;;;;;4993882;28;20670;-73
2022/01/28 08:05:22;;;;;;;20.33;2.80;;;5.10;99.90;;;;;;4994271;28;20182;-73
2022/01/28 08:07:48;;;;;;;13.67;2.77;;;5.10;99.90;;;;;;4993769;28;20174;-73
2022/01/28 08:10:16;;;;;;;18.83;3.47;;;5.10;99.90;;;;;;5002474;28;20231;-73
2022/01/28 08:12:53;;;;;;;15.23;2.90;;;5.10;99.90;;;;;;4997124;28;20198;-73
2022/01/28 08:15:19;;;;;;;17.73;2.57;;;5.10;99.90;;;;;;5023810;28;20165;-73
2022/01/28 08:17:45;;;;;;;18.00;2.67;;;5.10;99.90;;;;;;5009985;28;20178;-73
2022/01/28 08:20:12;;;;;;;19.90;3.13;;;5.10;99.90;;;;;;4992619;28;20217;-72
2022/01/28 08:22:53;;;;;;;14.90;3.10;;;5.10;99.90;;;;;;5009890;28;20567;-73
2022/01/28 08:25:21;;;;;;;18.27;2.87;;;5.20;99.90;;;;;;5010581;28;20174;-73
2022/01/28 08:27:47;;;;;;;16.33;3.30;;;5.10;99.90;;;;;;5009797;28;20240;-73
2022/01/28 08:30:15;;;;;;;12.17;2.90;;;5.20;99.90;;;;;;5009670;28;20213;-73
2022/01/28 08:32:41;;;;;;;86.70;10.13;;;5.20;99.90;;;;;;5009914;28;20185;-73
2022/01/28 08:35:07;;;;;;;14.20;2.87;;;5.20;99.90;;;;;;4990093;28;20193;-73
2022/01/28 08:37:33;;;;;;;20.67;3.73;;;5.20;99.90;;;;;;4976689;28;20182;-73
2022/01/28 08:40:00;;;;;;;16.43;2.83;;;5.20;99.90;;;;;;4973424;28;20206;-72
2022/01/28 08:42:26;;;;;;;17.93;3.10;;;5.20;99.90;;;;;;4974596;28;20185;-72
2022/01/28 08:44:51;;;;;;;12.13;3.03;;;5.30;99.90;;;;;;4987669;28;20273;-72
2022/01/28 08:47:17;;;;;;;23.63;3.53;;;5.30;99.90;;;;;;5010747;28;20279;-72
2022/01/28 08:49:43;;;;;;;17.87;3.30;;;5.30;99.90;;;;;;5012318;28;20251;-72
2022/01/28 08:52:08;;;;;;;15.00;2.50;;;5.30;99.90;;;;;;5005194;28;20250;-72
2022/01/28 08:54:34;;;;;;;21.40;3.20;;;5.30;99.90;;;;;;4973634;28;20181;-73
2022/01/28 08:56:59;;;;;;;18.97;3.17;;;5.30;99.90;;;;;;4989437;28;20253;-72
2022/01/28 08:59:25;;;;;;;17.07;2.97;;;5.40;99.90;;;;;;4990863;28;20194;-73
2022/01/28 09:01:51;;;;;;;16.70;3.17;;;5.40;99.90;;;;;;4991816;28;20196;-72
2022/01/28 09:04:16;;;;;;;16.13;3.60;;;5.50;99.90;;;;;;4992999;28;20205;-73
2022/01/28 09:06:42;;;;;;;18.23;3.37;;;5.60;99.90;;;;;;4995281;28;20182;-73
2022/01/28 09:09:08;;;;;;;17.77;3.10;;;5.60;99.90;;;;;;4976356;28;20189;-73
2022/01/28 09:11:47;;;;;;;18.97;3.33;;;5.70;99.90;;;;;;4982506;28;20209;-73
2022/01/28 09:14:14;;;;;;;21.23;4.13;;;5.70;99.90;;;;;;5009368;28;20536;-73
2022/01/28 09:16:40;;;;;;;14.37;2.93;;;5.70;99.90;;;;;;4992449;28;20229;-73
2022/01/28 09:19:06;;;;;;;15.93;3.27;;;5.70;99.90;;;;;;4991912;28;20170;-73
2022/01/28 09:21:38;;;;;;;17.20;3.90;;;5.80;99.90;;;;;;4999837;28;20300;-73
2022/01/28 09:24:04;;;;;;;15.13;2.43;;;5.80;99.90;;;;;;5001127;28;20176;-74
2022/01/28 09:26:30;;;;;;;18.47;3.73;;;5.80;99.90;;;;;;5012622;28;20220;-74
2022/01/28 09:28:56;;;;;;;6.80;2.40;;;5.80;99.90;;;;;;4999667;28;20205;-74
2022/01/28 09:31:22;;;;;;;16.80;3.37;;;5.90;99.90;;;;;;4992561;28;20212;-74
2022/01/28 09:33:48;;;;;;;23.50;5.07;;;5.90;99.90;;;;;;4992387;28;20170;-73
2022/01/28 09:36:13;;;;;;;16.40;3.23;;;5.90;99.90;;;;;;4991645;28;20216;-74
2022/01/28 09:38:39;;;;;;;22.60;3.63;;;5.90;99.90;;;;;;4980828;28;20301;-73
2022/01/28 09:41:08;;;;;;;13.83;2.57;;;5.90;99.90;;;;;;4984121;28;20623;-73
2022/01/28 09:43:34;;;;;;;17.17;3.20;;;5.90;99.90;;;;;;4996861;28;20180;-74
2022/01/28 09:46:03;;;;;;;17.27;3.27;;;5.90;99.90;;;;;;4991628;28;20181;-74
2022/01/28 09:48:30;;;;;;;14.27;2.53;;;5.90;99.90;;;;;;4991273;28;20188;-74
2022/01/28 09:50:59;;;;;;;16.57;3.03;;;5.90;99.90;;;;;;4988462;28;20214;-74
2022/01/28 09:53:25;;;;;;;13.53;3.20;;;5.90;99.90;;;;;;4991655;28;20189;-74
2022/01/28 09:55:52;;;;;;;14.17;3.13;;;5.90;99.90;;;;;;4992145;28;20169;-74
2022/01/28 09:58:18;;;;;;;14.83;3.00;;;5.90;99.90;;;;;;4990581;28;20178;-74
2022/01/28 10:00:44;;;;;;;18.53;3.17;;;6.00;99.90;;;;;;4989211;28;20205;-74
2022/01/28 10:03:12;;;;;;;18.10;2.90;;;6.00;99.90;;;;;;4991675;28;20219;-74
2022/01/28 10:05:49;;;;;;;17.20;2.97;;;6.00;99.90;;;;;;4992156;28;20178;-74
2022/01/28 10:08:14;;;;;;;22.90;3.67;;;6.10;99.90;;;;;;4991245;28;20332;-74
2022/01/28 10:10:50;;;;;;;18.10;2.93;;;6.10;99.90;;;;;;4995947;28;20280;-73
2022/01/28 10:13:46;;;;;;;15.80;3.20;;;6.10;99.90;;;;;;4972145;28;20170;-73
2022/01/28 10:16:12;;;;;;;21.73;4.03;;;6.10;99.90;;;;;;4972698;28;20178;-73
2022/01/28 10:18:43;;;;;;;20.13;3.60;;;6.10;99.90;;;;;;4999928;28;20653;-73
2022/01/28 10:21:43;;;;;;;24.03;2.97;;;6.10;99.90;;;;;;4991353;28;20232;-73
2022/01/28 10:24:17;;;;;;;17.50;3.33;;;6.10;99.90;;;;;;4984243;28;20240;-73
2022/01/28 10:27:05;;;;;;;15.40;2.80;;;6.10;99.90;;;;;;4979864;28;20206;-74
2022/01/28 10:29:39;;;;;;;15.10;3.10;;;6.10;99.90;;;;;;4987139;28;20214;-73
2022/01/28 10:32:17;;;;;;;17.40;2.90;;;6.10;99.90;;;;;;4991101;28;20165;-73
2022/01/28 10:34:51;;;;;;;19.47;3.13;;;6.20;99.90;;;;;;4990872;28;20182;-73
2022/01/28 10:37:23;;;;;;;16.60;2.83;;;6.20;99.90;;;;;;4991625;28;20656;-73
2022/01/28 10:39:49;;;;;;;13.37;2.80;;;6.20;99.90;;;;;;4991024;28;20206;-73
2022/01/28 10:42:41;;;;;;;14.67;3.03;;;6.20;99.90;;;;;;4997557;28;20260;-73
2022/01/28 10:45:10;;;;;;;12.17;2.90;;;6.20;99.90;;;;;;4962509;28;20198;-73
2022/01/28 10:47:57;;;;;;;12.63;2.80;;;6.30;99.90;;;;;;4986271;28;20340;-73
2022/01/28 10:50:29;;;;;;;18.37;3.67;;;6.30;99.90;;;;;;4990050;28;20205;-73
2022/01/28 10:53:04;;;;;;;14.23;2.67;;;6.40;99.90;;;;;;4989036;28;20174;-73
2022/01/28 10:55:31;;;;;;;12.70;3.00;;;6.40;99.90;;;;;;4991120;28;20189;-73
2022/01/28 10:57:59;;;;;;;16.33;2.87;;;6.50;99.90;;;;;;4990798;28;20264;-73
2022/01/28 11:00:31;;;;;;;19.93;2.90;;;6.50;99.90;;;;;;4993759;28;20232;-73
2022/01/28 11:02:59;;;;;;;18.73;3.73;;;6.50;99.90;;;;;;5007223;28;20668;-73
2022/01/28 11:05:28;;;;;;;15.33;3.20;;;6.50;99.90;;;;;;5007380;28;20240;-73
2022/01/28 11:07:56;;;;;;;30.27;3.27;;;6.50;99.90;;;;;;5006865;28;20185;-73
2022/01/28 11:10:21;;;;;;;14.47;2.93;;;6.50;99.90;;;;;;4987587;28;20205;-73
2022/01/28 11:12:48;;;;;;;16.63;3.27;;;6.50;99.90;;;;;;4981479;28;20178;-73
2022/01/28 11:15:14;;;;;;;21.50;4.00;;;6.50;99.90;;;;;;4986476;28;20178;-73
2022/01/28 11:17:40;;;;;;;15.80;3.40;;;6.50;99.90;;;;;;5003357;28;20208;-73
2022/01/28 11:20:08;;;;;;;15.27;2.83;;;6.50;99.90;;;;;;5001885;28;20312;-73
2022/01/28 11:22:54;;;;;;;18.87;2.60;;;6.50;99.90;;;;;;4986991;28;20194;-73
2022/01/28 11:25:25;;;;;;;21.17;3.77;;;6.50;99.90;;;;;;4986308;28;20196;-73
2022/01/28 11:27:50;;;;;;;18.37;2.73;;;6.60;99.90;;;;;;4986537;28;20718;-73
2022/01/28 11:30:26;;;;;;;16.70;3.00;;;6.60;99.90;;;;;;4983676;28;20304;-73
2022/01/28 11:32:52;;;;;;;23.80;3.33;;;6.60;99.90;;;;;;5003536;28;20695;-73
2022/01/28 11:35:21;;;;;;;18.07;2.87;;;6.60;99.90;;;;;;4990700;28;20280;-73
2022/01/28 11:37:47;;;;;;;23.27;3.27;;;6.60;99.90;;;;;;5004653;28;20185;-74
2022/01/28 11:40:15;;;;;;;19.17;3.87;;;6.70;99.90;;;;;;5005637;28;20209;-74
2022/01/28 11:42:41;;;;;;;17.07;2.90;;;6.70;99.90;;;;;;4989860;28;20190;-75
2022/01/28 11:45:10;;;;;;;16.80;2.73;;;6.70;99.90;;;;;;4989495;28;20185;-74
2022/01/28 11:47:38;;;;;;;17.87;3.13;;;6.70;99.90;;;;;;5006987;28;20200;-74
2022/01/28 11:50:13;;;;;;;23.23;2.67;;;6.70;99.90;;;;;;4988526;28;20221;-74
2022/01/28 11:52:48;;;;;;;18.20;3.40;;;6.70;99.90;;;;;;4989617;28;20192;-74
2022/01/28 11:55:28;;;;;;;17.33;2.63;;;6.70;99.90;;;;;;4988984;28;20193;-74
2022/01/28 11:57:55;;;;;;;19.00;3.00;;;6.70;99.90;;;;;;4990505;28;20169;-74
2022/01/28 12:00:26;;;;;;;15.37;3.33;;;6.70;99.90;;;;;;4987820;28;20213;-74
2022/01/28 12:02:53;;;;;;;14.90;2.70;;;6.70;99.90;;;;;;4986377;28;20244;-74
2022/01/28 12:05:30;;;;;;;21.57;4.53;;;6.80;99.90;;;;;;5002877;28;20189;-74
2022/01/28 12:08:03;;;;;;;17.33;3.63;;;6.80;99.90;;;;;;4987083;28;20197;-74
2022/01/28 12:10:32;;;;;;;13.77;2.83;;;6.80;99.90;;;;;;5003392;28;20240;-74
2022/01/28 12:13:03;;;;;;;16.57;2.67;;;6.80;99.90;;;;;;5003949;28;20221;-73
2022/01/28 12:15:32;;;;;;;15.20;2.73;;;6.90;99.90;;;;;;4988542;28;20197;-74
2022/01/28 12:18:11;;;;;;;15.10;2.60;;;6.90;99.90;;;;;;4988468;28;20189;-74
2022/01/28 12:20:46;;;;;;;18.17;2.70;;;7.00;99.90;;;;;;4985642;28;20248;-74
2022/01/28 12:23:11;;;;;;;14.83;3.70;;;7.00;99.90;;;;;;4988517;28;20251;-74
2022/01/28 12:25:43;;;;;;;15.03;2.60;;;7.00;99.90;;;;;;4988394;28;20182;-74
2022/01/28 12:28:22;;;;;;;17.43;2.57;;;7.00;99.90;;;;;;5006197;28;20813;-74
2022/01/28 12:31:00;;;;;;;10.60;2.27;;;7.00;99.90;;;;;;4987834;28;20220;-74
2022/01/28 12:33:36;;;;;;;14.50;2.43;;;7.00;99.90;;;;;;5005577;28;20212;-74
2022/01/28 12:36:17;;;;;;;15.00;2.53;;;7.00;99.90;;;;;;4988892;28;20189;-74
2022/01/28 12:39:08;;;;;;;15.80;2.93;;;7.00;99.90;;;;;;5003825;28;20196;-74
2022/01/28 12:41:42;;;;;;;12.80;2.07;;;7.00;99.90;;;;;;4986451;28;20248;-74
2022/01/28 12:44:10;;;;;;;15.17;2.93;;;7.00;99.90;;;;;;5004672;28;20205;-74
2022/01/28 12:46:38;;;;;;;15.77;3.17;;;7.00;99.90;;;;;;4988047;28;20197;-74
2022/01/28 12:49:08;;;;;;;18.97;3.17;;;7.00;99.90;;;;;;4983590;28;20224;-74
2022/01/28 12:51:38;;;;;;;16.43;2.73;;;7.00;99.90;;;;;;4980745;28;20209;-74
2022/01/28 12:54:03;;;;;;;12.97;2.03;;;7.00;99.90;;;;;;4981883;28;20201;-74
2022/01/28 12:56:34;;;;;;;10.80;2.70;;;7.00;99.90;;;;;;4985094;28;20181;-74
2022/01/28 12:59:02;;;;;;;16.80;2.50;;;7.00;99.90;;;;;;5003870;28;20201;-74
2022/01/28 13:01:28;;;;;;;11.03;2.00;;;7.10;99.90;;;;;;5004565;28;20264;-74
2022/01/28 13:04:23;;;;;;;14.57;2.30;;;7.00;99.90;;;;;;4988258;28;20189;-74
2022/01/28 13:09:18;;;;;;;14.30;2.27;;;7.00;99.90;;;;;;4988667;28;20194;-73
2022/01/28 13:11:46;;;;;;;12.03;2.50;;;7.00;99.90;;;;;;4987814;28;20209;-73
2022/01/28 13:14:15;;;;;;;15.57;2.27;;;7.10;99.90;;;;;;4987492;28;20200;-74
2022/01/28 13:16:44;;;;;;;13.37;2.90;;;7.10;99.90;;;;;;4986684;28;20654;-74
2022/01/28 13:19:13;;;;;;;9.33;2.07;;;7.10;99.90;;;;;;5002734;28;20189;-74
2022/01/28 13:21:41;;;;;;;15.67;2.40;;;7.10;99.90;;;;;;5002151;28;20275;-74
2022/01/28 13:24:16;;;;;;;18.23;2.73;;;7.10;99.90;;;;;;4986766;28;20272;-74
2022/01/28 13:27:08;;;;;;;13.37;2.47;;;7.10;99.90;;;;;;4988396;28;20197;-74
2022/01/28 13:29:52;;;;;;;10.70;2.33;;;7.10;99.90;;;;;;4987130;28;20197;-74
2022/01/28 13:32:28;;;;;;;18.93;2.60;;;7.10;99.90;;;;;;4987878;28;20209;-74
2022/01/28 13:34:55;;;;;;;12.63;2.00;;;7.10;99.90;;;;;;4984236;28;20677;-74
2022/01/28 13:37:40;;;;;;;15.43;2.47;;;7.10;99.90;;;;;;4987520;28;20189;-74
2022/01/28 13:40:09;;;;;;;9.27;2.03;;;7.00;99.90;;;;;;4986063;28;20703;-74
2022/01/28 13:42:56;;;;;;;16.10;3.40;;;7.00;99.90;;;;;;4985205;28;20190;-74
2022/01/28 13:45:57;;;;;;;16.53;2.67;;;7.00;99.90;;;;;;4986433;28;20201;-73
2022/01/28 13:48:32;;;;;;;16.50;2.43;;;7.00;99.90;;;;;;4986355;28;20268;-74
2022/01/28 13:51:05;;;;;;;21.03;2.73;;;7.00;99.90;;;;;;4985260;28;20259;-73
2022/01/28 13:56:43;;;;;;;16.30;3.23;;;6.90;99.90;;;;;;4986596;28;20178;-73
2022/01/28 13:59:17;;;;;;;14.17;2.60;;;6.90;99.90;;;;;;4985925;28;20200;-73
2022/01/28 14:01:47;;;;;;;12.50;2.43;;;7.00;99.90;;;;;;4986709;28;20201;-73
2022/01/28 14:04:22;;;;;;;9.97;2.50;;;7.00;99.90;;;;;;4986253;28;20197;-73
2022/01/28 14:06:47;;;;;;;11.23;2.27;;;7.00;99.90;;;;;;4985550;28;20209;-72
2022/01/28 14:09:22;;;;;;;16.80;3.13;;;7.00;99.90;;;;;;5001323;28;20194;-73
2022/01/28 14:12:02;;;;;;;17.10;2.73;;;7.00;99.90;;;;;;4984712;28;20225;-74
2022/01/28 14:14:41;;;;;;;13.83;3.40;;;7.00;99.90;;;;;;4985324;28;20265;-74
2022/01/28 14:17:09;;;;;;;12.77;2.50;;;6.90;99.90;;;;;;5003234;28;20186;-74
2022/01/28 14:19:40;;;;;;;14.67;2.60;;;6.90;99.90;;;;;;5001202;28;20181;-74
2022/01/28 14:22:08;;;;;;;16.83;2.80;;;7.00;99.90;;;;;;5003048;28;20582;-72
2022/01/28 14:24:39;;;;;;;30.03;3.33;;;7.00;99.90;;;;;;4999944;28;20192;-72
2022/01/28 14:32:14;;;;;;;12.93;3.53;;;7.10;99.90;;;;;;4987849;28;20653;-72
2022/01/28 14:34:42;;;;;;;13.80;2.27;;;7.10;99.90;;;;;;4986695;28;20188;-72